Time;durP1;ratioP1;P1;durP2;ratioP2;P2;SDS_P1;SDS_P2;PMS_P1;PMS_P2;Temp;Humidity;BMP_temperature;BMP_pressure;BME280_temperature;BME280_humidity;BME280_pressure;Samples;Min_cycle;Max_cycle;Signal;HPM_P1;HPM_P2
2021/03/30 00:00:15;;;;;;;3.88;2.60;;;7.10;84.60;;;;;;5045584;28;20262;-69
2021/03/30 00:02:41;;;;;;;3.33;2.95;;;7.10;84.50;;;;;;5045782;28;20695;-70
2021/03/30 00:05:09;;;;;;;3.80;2.60;;;7.00;84.70;;;;;;5045559;28;20201;-69
2021/03/30 00:07:35;;;;;;;4.22;2.35;;;7.00;85.10;;;;;;5045513;28;20225;-70
2021/03/30 00:10:04;;;;;;;3.55;2.70;;;7.00;85.30;;;;;;5045237;28;20209;-69
2021/03/30 00:12:30;;;;;;;6.40;2.88;;;7.00;85.70;;;;;;5045334;28;20233;-69
2021/03/30 00:14:56;;;;;;;4.53;2.65;;;7.00;85.60;;;;;;5045555;28;20672;-69
2021/03/30 00:17:22;;;;;;;3.55;2.72;;;7.00;85.40;;;;;;5045610;28;20276;-69
2021/03/30 00:19:49;;;;;;;4.65;2.83;;;6.90;85.70;;;;;;5045053;28;20227;-69
2021/03/30 00:22:15;;;;;;;3.50;2.28;;;6.90;86.40;;;;;;5045745;28;20232;-69
2021/03/30 00:24:41;;;;;;;3.85;2.72;;;6.80;86.90;;;;;;5045588;28;20683;-69
2021/03/30 00:27:09;;;;;;;4.30;3.00;;;6.80;86.40;;;;;;5045781;28;20220;-69
2021/03/30 00:29:43;;;;;;;5.25;3.35;;;6.80;86.50;;;;;;5045073;28;20258;-70
2021/03/30 00:32:09;;;;;;;7.85;4.35;;;6.80;86.20;;;;;;5045264;28;20325;-70
2021/03/30 00:34:36;;;;;;;6.50;3.78;;;6.80;86.00;;;;;;5045342;28;20208;-69
2021/03/30 00:37:02;;;;;;;7.35;3.80;;;6.70;86.10;;;;;;5045295;28;20945;-70
2021/03/30 00:39:29;;;;;;;4.00;2.80;;;6.70;86.50;;;;;;5043788;28;20209;-69
2021/03/30 00:41:55;;;;;;;7.55;3.60;;;6.70;86.80;;;;;;5045104;28;20225;-70
2021/03/30 00:44:22;;;;;;;4.95;3.50;;;6.70;87.20;;;;;;5044880;28;20209;-69
2021/03/30 00:46:50;;;;;;;4.50;3.65;;;6.60;87.20;;;;;;5044771;28;20217;-70
2021/03/30 00:49:17;;;;;;;7.38;3.72;;;6.60;87.40;;;;;;5044440;28;20262;-69
2021/03/30 00:51:44;;;;;;;5.05;3.35;;;6.60;87.40;;;;;;5045197;28;20232;-70
2021/03/30 00:54:10;;;;;;;4.68;3.42;;;6.60;87.60;;;;;;5045492;28;20208;-70
2021/03/30 00:56:37;;;;;;;4.72;3.50;;;6.60;87.80;;;;;;5045322;28;20739;-69
2021/03/30 00:59:04;;;;;;;5.30;3.40;;;6.50;88.30;;;;;;5044416;28;20231;-72
2021/03/30 01:01:49;;;;;;;;;;;;;;;;;;;;;
2021/03/30 01:04:21;;;;;;;7.15;3.97;;;6.50;89.00;;;;;;5044420;28;20197;-92
2021/03/30 01:06:48;;;;;;;8.10;4.30;;;6.50;88.40;;;;;;5034871;28;20225;-92
2021/03/30 01:09:30;;;;;;;8.95;4.35;;;6.50;88.10;;;;;;5034233;28;20190;-92
2021/03/30 01:12:07;;;;;;;5.25;3.22;;;6.40;87.80;;;;;;5015771;28;20213;-91
2021/03/30 01:14:46;;;;;;;4.32;3.22;;;6.30;88.10;;;;;;5015095;28;20208;-91
2021/03/30 01:17:25;;;;;;;3.83;2.88;;;6.20;88.00;;;;;;5014468;28;20308;-94
2021/03/30 01:20:29;;;;;;;5.05;3.70;;;6.10;88.30;;;;;;5013620;28;20235;-94
2021/03/30 01:23:21;;;;;;;4.20;3.38;;;6.00;89.10;;;;;;5031034;28;20572;-92
2021/03/30 01:25:55;;;;;;;6.72;3.17;;;6.00;90.10;;;;;;5033024;28;20221;-91
2021/03/30 01:28:29;;;;;;;4.97;3.00;;;6.00;90.30;;;;;;5032632;28;20229;-91
2021/03/30 01:30:57;;;;;;;4.35;3.67;;;6.00;90.20;;;;;;5032756;28;20221;-91
2021/03/30 01:33:28;;;;;;;4.88;3.58;;;5.90;90.10;;;;;;5033160;28;20202;-92
2021/03/30 01:35:56;;;;;;;8.68;4.03;;;5.80;90.40;;;;;;5033460;28;20205;-91
2021/03/30 01:38:24;;;;;;;7.78;5.05;;;5.70;90.30;;;;;;5033424;28;20296;-92
2021/03/30 01:40:53;;;;;;;9.75;4.70;;;5.60;90.60;;;;;;5032704;28;20236;-92
2021/03/30 01:43:20;;;;;;;6.53;3.55;;;5.60;90.60;;;;;;5032882;28;20241;-91
2021/03/30 01:45:51;;;;;;;7.07;4.00;;;5.60;90.60;;;;;;5032899;28;20662;-91
2021/03/30 01:48:20;;;;;;;5.28;3.63;;;5.60;90.60;;;;;;5042863;28;20213;-92
2021/03/30 01:50:48;;;;;;;5.60;3.80;;;5.60;90.50;;;;;;5045531;28;20233;-91
2021/03/30 01:53:16;;;;;;;4.20;2.88;;;5.50;90.40;;;;;;5034220;28;20269;-91
2021/03/30 01:55:44;;;;;;;3.88;3.03;;;5.50;90.40;;;;;;5033338;28;20296;-92
2021/03/30 01:58:11;;;;;;;4.57;2.88;;;5.50;90.40;;;;;;5034556;28;20753;-91
2021/03/30 02:00:39;;;;;;;4.55;2.67;;;5.40;90.30;;;;;;5035473;28;20237;-92
2021/03/30 02:03:07;;;;;;;3.47;2.90;;;5.40;90.40;;;;;;5052894;28;20181;-95
2021/03/30 02:05:35;;;;;;;2.60;2.40;;;5.40;90.80;;;;;;5040755;28;20189;-94
2021/03/30 02:08:02;;;;;;;4.05;2.65;;;5.40;90.90;;;;;;5034412;28;20205;-92
2021/03/30 02:10:34;;;;;;;3.35;2.60;;;5.30;91.10;;;;;;5034950;28;20214;-91
2021/03/30 02:13:03;;;;;;;4.63;2.50;;;5.30;91.00;;;;;;5033096;28;20209;-92
2021/03/30 02:15:30;;;;;;;3.95;2.50;;;5.30;91.00;;;;;;5033459;28;20205;-91
2021/03/30 02:18:04;;;;;;;5.82;2.60;;;5.30;91.00;;;;;;5033621;28;20715;-92
2021/03/30 02:20:36;;;;;;;9.43;2.70;;;5.30;91.10;;;;;;5033253;28;20216;-91
2021/03/30 02:23:05;;;;;;;3.15;2.63;;;5.20;91.40;;;;;;5036458;28;20323;-91
2021/03/30 02:25:33;;;;;;;4.10;3.08;;;5.10;91.70;;;;;;5032670;28;20225;-91
2021/03/30 02:28:06;;;;;;;4.90;3.40;;;5.10;91.60;;;;;;5032499;28;20254;-92
2021/03/30 02:30:35;;;;;;;2.55;2.35;;;5.10;91.70;;;;;;5032377;28;20313;-92
2021/03/30 02:33:03;;;;;;;5.32;2.88;;;5.10;91.70;;;;;;5033370;28;20237;-91
2021/03/30 02:35:31;;;;;;;4.93;2.80;;;5.10;91.40;;;;;;5033678;28;20701;-91
2021/03/30 02:38:02;;;;;;;4.47;2.83;;;5.10;91.30;;;;;;5033915;28;20206;-92
2021/03/30 02:40:28;;;;;;;4.05;2.60;;;5.10;91.60;;;;;;5032779;28;20740;-92
2021/03/30 02:42:56;;;;;;;3.53;2.63;;;5.00;91.50;;;;;;5033408;28;20249;-92
2021/03/30 02:45:25;;;;;;;4.10;2.70;;;5.00;91.40;;;;;;5033352;28;20226;-91
2021/03/30 02:47:56;;;;;;;4.70;2.60;;;4.90;91.30;;;;;;5033056;28;20286;-92
2021/03/30 02:50:23;;;;;;;4.15;2.65;;;4.90;91.30;;;;;;5033770;28;20226;-92
2021/03/30 02:52:53;;;;;;;4.03;2.20;;;4.90;91.30;;;;;;5033833;28;20243;-91
2021/03/30 02:55:21;;;;;;;2.10;1.77;;;4.90;91.30;;;;;;5033796;28;20236;-92
2021/03/30 02:57:47;;;;;;;4.47;2.60;;;4.90;91.20;;;;;;5035352;28;20269;-92
2021/03/30 03:00:18;;;;;;;3.20;2.40;;;4.90;91.10;;;;;;5033924;28;20774;-92
2021/03/30 03:02:47;;;;;;;3.35;2.65;;;4.90;91.20;;;;;;5035383;28;20209;-92
2021/03/30 03:05:14;;;;;;;4.53;3.22;;;4.90;91.30;;;;;;5037266;28;20240;-92
2021/03/30 03:07:51;;;;;;;3.15;2.50;;;4.80;91.70;;;;;;5038822;28;20222;-92
2021/03/30 03:10:19;;;;;;;5.70;2.67;;;4.80;91.80;;;;;;5039678;28;20226;-91
2021/03/30 03:12:47;;;;;;;3.28;2.80;;;4.70;91.80;;;;;;5039302;28;20201;-94
2021/03/30 03:15:16;;;;;;;5.30;2.63;;;4.60;92.00;;;;;;5037889;28;20213;-91
2021/03/30 03:17:43;;;;;;;4.15;2.45;;;4.60;91.70;;;;;;5041682;28;20198;-91
2021/03/30 03:20:11;;;;;;;4.55;2.67;;;4.60;91.80;;;;;;5042992;28;20240;-92
2021/03/30 03:22:38;;;;;;;5.30;3.13;;;4.50;91.70;;;;;;5038312;28;20441;-92
2021/03/30 03:25:08;;;;;;;3.78;2.80;;;4.50;91.80;;;;;;5036622;28;20296;-92
2021/03/30 03:27:35;;;;;;;3.17;2.70;;;4.40;91.90;;;;;;5036278;28;20221;-92
2021/03/30 03:30:06;;;;;;;5.85;3.13;;;4.40;92.00;;;;;;5036882;28;20228;-91
2021/03/30 03:32:33;;;;;;;3.28;2.47;;;4.40;92.20;;;;;;5038731;28;20212;-92
2021/03/30 03:35:01;;;;;;;7.32;3.30;;;4.30;92.30;;;;;;5041841;28;20271;-93
2021/03/30 03:37:27;;;;;;;2.70;2.45;;;4.30;92.30;;;;;;5035562;28;20205;-91
2021/03/30 03:39:53;;;;;;;3.67;2.80;;;4.30;92.30;;;;;;5036461;28;20225;-91
2021/03/30 03:42:26;;;;;;;5.93;2.60;;;4.30;92.60;;;;;;5036601;28;20209;-92
2021/03/30 03:44:52;;;;;;;3.40;2.70;;;4.20;92.70;;;;;;5035786;28;20208;-90
2021/03/30 03:47:23;;;;;;;2.95;2.10;;;4.30;92.60;;;;;;5035439;28;20228;-93
2021/03/30 03:49:55;;;;;;;4.05;2.72;;;4.30;92.50;;;;;;5035765;28;20205;-94
2021/03/30 03:52:26;;;;;;;17.10;3.38;;;4.20;92.50;;;;;;5037232;28;20206;-93
2021/03/30 03:54:57;;;;;;;4.28;2.83;;;4.20;92.70;;;;;;5037210;28;20643;-93
2021/03/30 04:00:47;;;;;;;4.68;2.70;;;4.10;92.70;;;;;;5011539;22;20703;-76
2021/03/30 04:03:20;;;;;;;5.53;2.90;;;4.00;92.80;;;;;;5050793;28;20205;-76
2021/03/30 04:06:03;;;;;;;4.13;3.30;;;4.00;92.70;;;;;;5011321;28;20205;-76
2021/03/30 04:08:32;;;;;;;4.78;2.72;;;4.00;92.90;;;;;;5010948;28;20222;-74
2021/03/30 04:11:03;;;;;;;5.28;2.90;;;3.90;93.10;;;;;;5011060;28;20261;-73
2021/03/30 04:13:32;;;;;;;4.28;2.90;;;3.90;93.20;;;;;;5011709;28;20210;-73
2021/03/30 04:16:01;;;;;;;4.53;2.92;;;4.00;93.20;;;;;;5011479;28;20741;-77
2021/03/30 04:18:29;;;;;;;3.20;2.90;;;4.00;93.50;;;;;;5011024;28;20704;-77
2021/03/30 04:20:55;;;;;;;4.05;2.97;;;4.00;93.50;;;;;;5011042;28;20277;-77
2021/03/30 04:23:24;;;;;;;5.75;3.60;;;3.90;93.70;;;;;;5011140;28;20231;-76
2021/03/30 04:25:50;;;;;;;5.53;3.20;;;3.90;93.90;;;;;;5017649;28;20963;-75
2021/03/30 04:28:17;;;;;;;3.40;3.00;;;3.80;94.00;;;;;;5030298;28;20197;-75
2021/03/30 04:30:43;;;;;;;6.22;3.35;;;3.80;94.20;;;;;;5030675;28;20232;-76
2021/03/30 04:33:09;;;;;;;3.78;3.00;;;3.80;94.20;;;;;;5030633;28;20205;-76
2021/03/30 04:35:37;;;;;;;3.58;3.28;;;3.80;94.30;;;;;;5030889;28;20699;-75
2021/03/30 04:38:03;;;;;;;6.10;3.33;;;3.80;94.40;;;;;;5030320;28;20293;-76
2021/03/30 04:40:29;;;;;;;4.38;3.30;;;3.80;94.60;;;;;;5030276;28;20557;-76
2021/03/30 04:42:55;;;;;;;3.60;2.92;;;3.80;94.60;;;;;;5030332;28;20584;-76
2021/03/30 04:45:22;;;;;;;7.28;3.25;;;3.80;94.60;;;;;;5030480;28;20209;-75
2021/03/30 04:47:48;;;;;;;5.22;3.10;;;3.90;94.50;;;;;;5030483;28;20225;-76
2021/03/30 04:50:15;;;;;;;3.90;3.50;;;3.80;94.50;;;;;;5029711;28;20210;-76
2021/03/30 04:52:42;;;;;;;4.55;3.53;;;3.80;94.60;;;;;;5030221;28;20205;-76
2021/03/30 04:55:09;;;;;;;6.20;3.90;;;3.70;94.70;;;;;;5030144;28;20228;-76
2021/03/30 04:57:35;;;;;;;4.25;3.40;;;3.60;94.80;;;;;;5030473;28;20198;-76
2021/03/30 05:00:02;;;;;;;8.07;3.03;;;3.70;94.90;;;;;;5029371;28;20283;-76
2021/03/30 05:02:28;;;;;;;5.28;3.10;;;3.70;94.90;;;;;;5030104;28;20578;-75
2021/03/30 05:04:54;;;;;;;7.82;3.30;;;3.60;95.20;;;;;;5029745;28;20208;-76
2021/03/30 05:07:21;;;;;;;4.38;3.13;;;3.60;95.60;;;;;;5030029;28;20804;-75
2021/03/30 05:09:48;;;;;;;9.50;3.25;;;3.50;95.50;;;;;;5029500;28;20711;-76
2021/03/30 05:12:14;;;;;;;3.88;3.47;;;3.60;95.70;;;;;;5029976;28;20230;-75
2021/03/30 05:14:40;;;;;;;9.45;3.15;;;3.60;95.80;;;;;;5029963;28;20206;-75
2021/03/30 05:17:06;;;;;;;4.28;3.00;;;3.60;95.90;;;;;;5029733;28;20202;-75
2021/03/30 05:19:32;;;;;;;5.05;3.95;;;3.50;95.90;;;;;;5029345;28;20616;-75
2021/03/30 05:21:59;;;;;;;4.15;3.72;;;3.50;95.90;;;;;;5032929;28;20217;-75
2021/03/30 05:24:25;;;;;;;6.45;3.70;;;3.50;95.90;;;;;;5047968;28;20206;-75
2021/03/30 05:26:52;;;;;;;5.03;3.70;;;3.50;96.00;;;;;;5049325;28;20225;-75
2021/03/30 05:29:18;;;;;;;5.40;4.10;;;3.50;96.20;;;;;;5035323;28;20222;-76
2021/03/30 05:31:44;;;;;;;4.88;3.50;;;3.50;96.10;;;;;;5029269;28;20758;-75
2021/03/30 05:34:11;;;;;;;5.78;3.40;;;3.60;96.20;;;;;;5029618;28;20205;-75
2021/03/30 05:36:37;;;;;;;3.70;3.30;;;3.50;96.40;;;;;;5029558;28;20237;-75
2021/03/30 05:39:04;;;;;;;5.32;3.58;;;3.50;96.70;;;;;;5025070;28;20253;-76
2021/03/30 05:41:31;;;;;;;7.30;3.30;;;3.60;96.60;;;;;;5022067;28;20221;-75
2021/03/30 05:43:58;;;;;;;7.57;3.30;;;3.60;96.50;;;;;;5019682;28;20233;-75
2021/03/30 05:46:24;;;;;;;5.30;3.70;;;3.70;96.70;;;;;;5018712;28;20264;-75
2021/03/30 05:48:52;;;;;;;5.05;3.42;;;3.70;96.80;;;;;;5018549;28;20198;-75
2021/03/30 05:51:20;;;;;;;4.68;3.42;;;3.80;96.70;;;;;;5020118;28;20232;-75
2021/03/30 05:53:57;;;;;;;4.68;3.22;;;3.80;96.60;;;;;;5018405;28;20732;-75
2021/03/30 05:56:25;;;;;;;7.10;3.30;;;3.90;96.50;;;;;;5017930;28;20194;-75
2021/03/30 05:58:52;;;;;;;4.32;3.40;;;4.00;96.50;;;;;;5034528;28;20194;-75
2021/03/30 06:01:21;;;;;;;4.47;3.80;;;4.10;96.80;;;;;;5038605;28;20228;-75
2021/03/30 06:03:49;;;;;;;6.35;3.50;;;4.20;96.40;;;;;;5039654;28;20672;-75
2021/03/30 06:06:17;;;;;;;4.38;3.55;;;4.20;96.40;;;;;;5037467;28;20260;-75
2021/03/30 06:08:43;;;;;;;5.38;3.95;;;4.30;96.60;;;;;;5038585;28;20204;-75
2021/03/30 06:11:11;;;;;;;6.38;3.70;;;4.40;96.50;;;;;;5039020;28;20218;-75
2021/03/30 06:13:45;;;;;;;4.57;2.95;;;4.40;96.70;;;;;;5037801;28;20710;-75
2021/03/30 06:16:26;;;;;;;4.05;3.40;;;4.50;96.80;;;;;;5029941;28;20225;-75
2021/03/30 06:19:07;;;;;;;3.83;3.28;;;4.60;96.80;;;;;;5028501;28;20205;-75
2021/03/30 06:21:36;;;;;;;4.80;3.60;;;4.70;96.90;;;;;;5029243;28;20225;-75
2021/03/30 06:24:26;;;;;;;4.13;3.05;;;4.80;97.00;;;;;;5029054;28;20205;-75
2021/03/30 06:26:54;;;;;;;5.82;3.53;;;4.90;97.20;;;;;;5029308;28;20221;-75
2021/03/30 06:29:24;;;;;;;6.03;3.70;;;5.00;97.50;;;;;;5028534;28;20291;-75
2021/03/30 06:31:53;;;;;;;6.15;3.58;;;5.10;97.60;;;;;;5030050;28;20222;-75
2021/03/30 06:34:25;;;;;;;4.45;3.60;;;5.20;97.60;;;;;;5028759;28;20212;-75
2021/03/30 06:36:52;;;;;;;6.65;4.40;;;5.40;97.60;;;;;;5029422;28;20248;-75
2021/03/30 06:39:18;;;;;;;7.70;4.10;;;5.50;97.40;;;;;;5032415;28;20205;-75
2021/03/30 06:41:47;;;;;;;6.10;4.32;;;5.70;97.40;;;;;;5032938;28;20221;-75
2021/03/30 06:44:27;;;;;;;6.80;4.20;;;5.80;97.40;;;;;;5032874;28;20304;-75
2021/03/30 06:47:01;;;;;;;12.07;4.82;;;6.00;97.70;;;;;;5032729;28;20314;-75
2021/03/30 06:49:30;;;;;;;6.68;5.20;;;6.10;97.60;;;;;;5032356;28;21006;-75
2021/03/30 06:51:57;;;;;;;7.38;3.75;;;6.40;97.40;;;;;;5032422;28;20222;-75
2021/03/30 06:54:24;;;;;;;6.75;4.57;;;6.50;97.50;;;;;;5032695;28;20206;-75
2021/03/30 06:56:54;;;;;;;5.15;4.07;;;6.70;97.50;;;;;;5032455;28;20668;-75
2021/03/30 06:59:20;;;;;;;10.38;4.57;;;7.00;98.00;;;;;;5032257;28;20212;-75
2021/03/30 07:01:49;;;;;;;8.32;4.72;;;7.20;98.30;;;;;;5134267;22;20239;-74
2021/03/30 07:04:17;;;;;;;6.75;3.85;;;7.40;98.20;;;;;;5071822;28;20254;-73
2021/03/30 07:06:49;;;;;;;6.07;4.70;;;7.60;98.20;;;;;;5072212;28;20603;-74
2021/03/30 07:09:16;;;;;;;5.65;3.88;;;7.80;98.20;;;;;;5071622;28;20253;-73
2021/03/30 07:12:01;;;;;;;8.30;4.88;;;8.00;97.60;;;;;;5072354;28;20319;-73
2021/03/30 07:14:27;;;;;;;12.38;4.60;;;8.20;97.30;;;;;;5072038;28;20254;-73
2021/03/30 07:16:55;;;;;;;6.88;4.63;;;8.40;96.70;;;;;;5072170;28;20204;-73
2021/03/30 07:19:24;;;;;;;6.30;5.07;;;8.70;96.40;;;;;;5071007;28;20208;-73
2021/03/30 07:21:58;;;;;;;6.65;4.97;;;8.90;96.10;;;;;;5071931;28;20221;-73
2021/03/30 07:24:32;;;;;;;6.07;4.65;;;9.10;96.00;;;;;;5071784;28;20208;-73
2021/03/30 07:27:01;;;;;;;6.40;4.68;;;9.30;95.90;;;;;;5071546;28;20717;-73
2021/03/30 07:29:36;;;;;;;7.28;4.47;;;9.60;95.40;;;;;;5071126;28;20203;-73
2021/03/30 07:32:08;;;;;;;6.65;4.90;;;9.90;95.10;;;;;;5071476;28;20714;-74
2021/03/30 07:34:43;;;;;;;8.45;4.10;;;10.50;94.40;;;;;;5071586;28;20211;-74
2021/03/30 07:37:16;;;;;;;5.22;4.55;;;11.00;93.40;;;;;;5071627;28;20203;-73
2021/03/30 07:39:46;;;;;;;9.40;5.17;;;11.60;92.40;;;;;;5071153;28;20570;-73
2021/03/30 07:42:13;;;;;;;7.17;4.47;;;12.20;91.90;;;;;;5071664;28;20482;-73
2021/03/30 07:44:40;;;;;;;7.70;4.80;;;12.80;91.30;;;;;;5071510;28;20519;-73
2021/03/30 07:47:07;;;;;;;9.83;5.53;;;13.40;90.00;;;;;;5071312;28;20822;-74
2021/03/30 07:49:39;;;;;;;5.60;4.23;;;14.00;89.20;;;;;;5069460;28;20459;-74
2021/03/30 07:52:20;;;;;;;12.90;5.40;;;14.70;86.10;;;;;;5071425;28;20474;-74
2021/03/30 07:55:18;;;;;;;13.43;4.97;;;15.30;84.00;;;;;;5071663;28;20942;-74
2021/03/30 07:58:06;;;;;;;8.30;3.70;;;15.80;82.60;;;;;;5028751;28;20452;-74
2021/03/30 08:00:53;;;;;;;9.00;4.03;;;16.20;81.50;;;;;;5067488;28;20482;-74
2021/03/30 08:03:26;;;;;;;6.87;4.60;;;16.60;81.30;;;;;;5070777;28;20470;-74
2021/03/30 08:06:22;;;;;;;7.40;4.50;;;17.00;80.60;;;;;;5071266;28;20498;-73
2021/03/30 08:09:00;;;;;;;5.93;4.30;;;17.60;80.10;;;;;;5070403;28;20957;-74
2021/03/30 08:11:47;;;;;;;10.13;4.80;;;18.30;79.20;;;;;;5070840;28;20478;-74
2021/03/30 08:14:39;;;;;;;10.67;4.40;;;19.10;76.30;;;;;;5070721;28;20827;-74
2021/03/30 08:17:11;;;;;;;6.33;3.90;;;19.90;75.40;;;;;;5070807;28;20545;-74
2021/03/30 08:20:04;;;;;;;6.00;3.80;;;20.40;73.70;;;;;;5070217;28;20450;-74
2021/03/30 08:23:01;;;;;;;4.77;3.70;;;20.90;72.60;;;;;;5070650;28;20521;-74
2021/03/30 08:25:28;;;;;;;6.27;3.80;;;21.30;69.80;;;;;;5067449;28;20459;-74
2021/03/30 08:27:55;;;;;;;4.80;3.87;;;21.50;69.80;;;;;;5070647;28;20489;-74
2021/03/30 08:30:58;;;;;;;7.07;3.90;;;21.80;67.60;;;;;;5069941;28;20523;-74
2021/03/30 08:33:32;;;;;;;10.13;5.10;;;22.10;66.50;;;;;;5048499;28;20466;-74
2021/03/30 08:36:20;;;;;;;6.10;4.37;;;22.60;66.70;;;;;;5070472;28;20454;-74
2021/03/30 08:38:48;;;;;;;6.23;4.50;;;22.70;66.60;;;;;;5069961;28;20687;-74
2021/03/30 08:41:48;;;;;;;10.03;4.43;;;23.20;65.40;;;;;;5070129;28;20475;-74
2021/03/30 08:44:17;;;;;;;8.10;4.73;;;23.50;65.40;;;;;;5070217;28;20459;-74
2021/03/30 08:46:46;;;;;;;7.97;4.80;;;24.00;64.30;;;;;;5070284;28;20909;-74
2021/03/30 08:49:24;;;;;;;11.50;5.07;;;24.20;63.50;;;;;;5069461;28;20454;-74
2021/03/30 08:51:52;;;;;;;11.87;5.23;;;24.50;62.60;;;;;;5069821;28;20498;-74
2021/03/30 08:54:20;;;;;;;7.40;4.20;;;25.10;62.50;;;;;;5069903;28;20463;-74
2021/03/30 08:56:49;;;;;;;11.97;6.00;;;25.20;61.80;;;;;;5070006;28;20553;-74
2021/03/30 08:59:19;;;;;;;7.90;4.73;;;25.60;60.20;;;;;;5069230;28;20470;-74
2021/03/30 09:01:46;;;;;;;7.90;4.70;;;25.60;60.70;;;;;;5069456;28;21021;-74
2021/03/30 09:04:13;;;;;;;8.30;5.37;;;26.00;60.70;;;;;;5069638;28;20459;-74
2021/03/30 09:06:41;;;;;;;9.03;5.63;;;26.40;59.50;;;;;;5069830;28;20486;-74
2021/03/30 09:09:21;;;;;;;9.23;4.80;;;27.00;59.20;;;;;;5069300;28;20961;-74
2021/03/30 09:11:47;;;;;;;7.87;4.70;;;27.30;59.50;;;;;;5069792;28;20478;-74
2021/03/30 09:14:17;;;;;;;5.37;4.80;;;27.60;57.60;;;;;;5069763;28;20463;-74
2021/03/30 09:16:45;;;;;;;8.30;5.40;;;27.20;57.80;;;;;;5069727;28;20458;-74
2021/03/30 09:19:17;;;;;;;4.60;4.20;;;27.50;56.90;;;;;;5068782;28;20990;-74
2021/03/30 09:21:46;;;;;;;5.97;4.90;;;27.90;57.20;;;;;;5069585;28;20670;-74
2021/03/30 09:24:24;;;;;;;7.97;4.50;;;28.00;53.90;;;;;;5069502;28;20459;-74
2021/03/30 09:26:50;;;;;;;6.93;4.27;;;28.30;55.60;;;;;;5069488;28;20869;-73
2021/03/30 09:29:18;;;;;;;7.30;4.73;;;28.60;52.70;;;;;;5068835;28;20469;-74
2021/03/30 09:31:47;;;;;;;6.67;4.57;;;28.40;50.90;;;;;;5069213;28;20471;-74
2021/03/30 09:34:13;;;;;;;7.30;4.93;;;28.80;52.60;;;;;;5069381;28;20475;-73
2021/03/30 09:36:44;;;;;;;9.00;4.63;;;29.40;52.80;;;;;;5069444;28;20454;-74
2021/03/30 09:39:17;;;;;;;7.83;4.73;;;29.40;50.00;;;;;;5068817;28;20498;-74
2021/03/30 09:41:44;;;;;;;8.70;5.63;;;29.20;50.30;;;;;;5069097;28;20547;-73
2021/03/30 09:44:11;;;;;;;6.40;5.67;;;29.10;49.30;;;;;;5069328;28;20541;-73
2021/03/30 09:46:38;;;;;;;8.10;4.40;;;29.40;50.10;;;;;;5069316;28;20569;-73
2021/03/30 09:49:08;;;;;;;7.67;5.93;;;29.70;51.00;;;;;;5068495;28;20521;-74
2021/03/30 09:51:35;;;;;;;9.23;4.87;;;30.20;49.60;;;;;;5069292;28;20908;-74
2021/03/30 09:54:01;;;;;;;5.87;5.00;;;30.20;49.70;;;;;;5070102;28;20460;-74
2021/03/30 09:56:31;;;;;;;7.90;4.80;;;30.20;48.70;;;;;;5069324;28;20474;-74
2021/03/30 09:58:59;;;;;;;6.00;4.70;;;30.60;50.10;;;;;;5068927;28;20469;-72
2021/03/30 10:01:25;;;;;;;5.47;4.90;;;31.20;48.50;;;;;;5068803;28;20485;-74
2021/03/30 10:03:53;;;;;;;6.73;5.00;;;31.50;48.30;;;;;;5069180;28;20462;-72
2021/03/30 10:06:20;;;;;;;6.77;4.53;;;31.40;46.80;;;;;;5069130;28;20462;-74
2021/03/30 10:08:47;;;;;;;6.00;4.50;;;31.70;47.90;;;;;;5068199;28;20492;-74
2021/03/30 10:11:25;;;;;;;5.90;4.33;;;31.80;46.50;;;;;;5068473;28;20969;-73
2021/03/30 10:13:51;;;;;;;7.00;4.87;;;31.80;45.10;;;;;;5068654;28;20457;-74
2021/03/30 10:16:17;;;;;;;4.57;4.17;;;32.00;45.10;;;;;;5069804;28;20462;-74
2021/03/30 10:18:44;;;;;;;7.53;4.00;;;31.80;43.60;;;;;;5068656;28;20457;-74
2021/03/30 10:21:13;;;;;;;6.30;3.80;;;32.00;44.20;;;;;;5068796;28;20988;-74
2021/03/30 10:23:41;;;;;;;5.10;4.17;;;32.00;43.70;;;;;;5068915;28;20464;-74
2021/03/30 10:26:12;;;;;;;4.90;3.90;;;32.50;46.40;;;;;;5069332;28;20474;-73
2021/03/30 10:28:39;;;;;;;4.30;3.67;;;32.60;42.70;;;;;;5068624;28;20866;-73
2021/03/30 10:31:08;;;;;;;4.80;3.70;;;33.10;43.40;;;;;;5068644;28;20480;-73
2021/03/30 10:33:38;;;;;;;4.30;3.90;;;32.50;45.10;;;;;;5069030;28;20503;-73
2021/03/30 10:36:06;;;;;;;4.73;4.10;;;32.40;45.60;;;;;;5068983;28;20549;-74
2021/03/30 10:38:33;;;;;;;7.07;4.53;;;33.00;43.90;;;;;;5068547;28;20814;-74
2021/03/30 10:41:07;;;;;;;6.13;4.10;;;33.40;43.70;;;;;;5068511;28;20647;-74
2021/03/30 10:43:33;;;;;;;4.93;3.90;;;33.60;45.10;;;;;;5068408;28;20464;-73
2021/03/30 10:46:00;;;;;;;4.87;3.90;;;33.20;43.10;;;;;;5068250;28;20517;-74
2021/03/30 10:48:26;;;;;;;4.27;3.87;;;32.30;43.20;;;;;;5068130;28;20584;-74
2021/03/30 10:50:54;;;;;;;5.20;3.97;;;32.80;43.60;;;;;;5068340;28;20904;-74
2021/03/30 10:53:21;;;;;;;4.93;3.80;;;33.70;42.10;;;;;;5068481;28;20846;-74
2021/03/30 10:55:48;;;;;;;4.83;3.97;;;34.10;42.00;;;;;;5068301;28;20468;-74
2021/03/30 10:58:16;;;;;;;4.60;3.50;;;34.00;43.80;;;;;;5067922;28;20547;-73
2021/03/30 11:00:43;;;;;;;5.43;4.10;;;33.90;43.20;;;;;;5068096;28;20922;-74
2021/03/30 11:03:09;;;;;;;3.50;3.20;;;34.20;43.20;;;;;;5068115;28;20526;-74
2021/03/30 11:05:35;;;;;;;4.23;3.70;;;34.80;43.20;;;;;;5068133;28;20461;-74
2021/03/30 11:08:02;;;;;;;4.13;3.57;;;35.20;42.00;;;;;;5067675;28;20530;-73
2021/03/30 11:10:28;;;;;;;6.00;4.37;;;35.50;41.40;;;;;;5067730;28;20467;-74
2021/03/30 11:12:56;;;;;;;5.30;3.73;;;35.40;41.80;;;;;;5068194;28;20537;-74
2021/03/30 11:15:22;;;;;;;4.00;3.70;;;35.70;41.60;;;;;;5062170;28;20465;-74
2021/03/30 11:17:48;;;;;;;6.13;3.80;;;35.80;41.20;;;;;;5063727;28;20458;-71
2021/03/30 11:20:15;;;;;;;6.47;3.80;;;35.70;41.30;;;;;;5059860;28;20490;-71
2021/03/30 11:22:43;;;;;;;4.50;4.10;;;35.80;39.60;;;;;;5041257;28;20489;-74
2021/03/30 11:25:13;;;;;;;4.97;4.47;;;35.40;41.20;;;;;;5045172;28;20464;-73
2021/03/30 11:28:03;;;;;;;5.33;4.30;;;35.80;39.50;;;;;;5045432;28;20458;-73
2021/03/30 11:30:40;;;;;;;4.67;4.20;;;35.60;39.90;;;;;;5046372;28;20468;-73
2021/03/30 11:33:11;;;;;;;4.73;4.10;;;34.70;39.10;;;;;;5045117;28;20462;-73
2021/03/30 11:35:46;;;;;;;4.43;3.80;;;34.80;41.90;;;;;;5047181;28;20466;-72
2021/03/30 11:38:13;;;;;;;5.50;3.83;;;35.40;41.00;;;;;;5053663;28;20519;-72
2021/03/30 11:40:41;;;;;;;5.07;4.30;;;35.70;40.30;;;;;;5059848;28;20471;-73
2021/03/30 11:43:11;;;;;;;4.60;4.20;;;36.00;38.70;;;;;;5052150;28;20687;-73
2021/03/30 11:45:42;;;;;;;4.83;4.33;;;35.70;37.90;;;;;;5046147;28;20893;-72
2021/03/30 11:48:12;;;;;;;4.60;3.23;;;35.60;37.10;;;;;;5044069;28;20459;-73
2021/03/30 11:50:44;;;;;;;4.87;4.47;;;35.50;38.40;;;;;;5043275;28;20568;-73
2021/03/30 11:53:11;;;;;;;5.30;4.80;;;35.70;38.40;;;;;;5044083;28;20489;-73
2021/03/30 11:55:37;;;;;;;4.70;4.00;;;35.80;38.60;;;;;;5045011;28;20465;-73
2021/03/30 11:58:04;;;;;;;4.30;3.90;;;36.00;37.90;;;;;;5045071;28;20908;-72
2021/03/30 12:00:44;;;;;;;4.20;3.80;;;35.80;38.40;;;;;;5044907;28;20482;-72
2021/03/30 12:03:11;;;;;;;4.10;3.57;;;36.20;36.80;;;;;;5044035;28;20471;-71
2021/03/30 12:05:38;;;;;;;3.80;3.40;;;36.00;38.40;;;;;;5044421;28;20502;-72
2021/03/30 12:08:05;;;;;;;5.53;3.70;;;36.10;39.70;;;;;;5045011;28;20463;-73
2021/03/30 12:10:43;;;;;;;4.63;3.57;;;36.20;35.00;;;;;;5044785;28;20476;-72
2021/03/30 12:13:12;;;;;;;4.97;4.00;;;35.70;37.50;;;;;;5044018;28;20474;-73
2021/03/30 12:15:43;;;;;;;4.47;4.07;;;36.20;36.90;;;;;;5044820;28;20466;-72
2021/03/30 12:18:13;;;;;;;6.40;3.93;;;35.40;37.90;;;;;;5044570;28;20515;-72
2021/03/30 12:20:51;;;;;;;4.40;4.00;;;35.30;39.30;;;;;;5045219;28;20520;-73
2021/03/30 12:23:19;;;;;;;5.33;3.70;;;35.30;37.10;;;;;;5044316;28;21142;-72
2021/03/30 12:25:51;;;;;;;4.07;3.77;;;35.50;37.20;;;;;;5044208;28;20452;-72
2021/03/30 12:28:18;;;;;;;4.23;3.93;;;35.60;35.80;;;;;;5044995;28;20475;-74
2021/03/30 12:30:46;;;;;;;4.50;4.00;;;35.20;37.30;;;;;;5043859;28;20496;-73
2021/03/30 12:33:13;;;;;;;4.47;4.07;;;35.00;40.20;;;;;;5043043;28;20485;-73
2021/03/30 12:35:40;;;;;;;4.77;4.33;;;35.20;38.70;;;;;;5043876;28;20467;-72
2021/03/30 12:38:06;;;;;;;4.20;3.80;;;35.50;38.40;;;;;;5043348;28;20492;-73
2021/03/30 12:40:34;;;;;;;5.63;3.83;;;35.50;36.60;;;;;;5044258;28;20483;-73
2021/03/30 12:43:00;;;;;;;5.10;3.80;;;35.00;36.60;;;;;;5043164;28;20467;-71
2021/03/30 12:45:27;;;;;;;4.37;3.40;;;35.10;37.00;;;;;;5043720;28;20546;-72
2021/03/30 12:47:54;;;;;;;3.70;3.40;;;35.00;36.00;;;;;;5044010;28;20503;-72
2021/03/30 12:50:25;;;;;;;4.20;3.57;;;35.30;38.50;;;;;;5042904;28;20454;-72
2021/03/30 12:52:51;;;;;;;3.63;3.33;;;35.50;35.50;;;;;;5042783;28;20905;-71
2021/03/30 12:55:17;;;;;;;2.97;2.73;;;35.20;34.50;;;;;;5043543;28;20894;-72
2021/03/30 12:57:43;;;;;;;6.23;2.70;;;34.80;34.10;;;;;;5044226;28;20483;-72
2021/03/30 13:00:11;;;;;;;4.60;3.00;;;34.50;35.30;;;;;;5043191;28;20504;-73
2021/03/30 13:02:37;;;;;;;4.63;2.90;;;34.40;36.30;;;;;;5043586;28;20478;-72
2021/03/30 13:05:06;;;;;;;3.40;2.90;;;33.30;35.30;;;;;;5043522;28;20466;-72
2021/03/30 13:07:33;;;;;;;3.40;3.03;;;32.30;36.20;;;;;;5044383;28;21049;-72
2021/03/30 13:09:59;;;;;;;3.93;2.77;;;32.20;34.90;;;;;;5042138;28;20465;-71